sensor_id;sensor_type;location;lat;lon;timestamp;P1;durP1;ratioP1;P2;durP2;ratioP2
63259;SDS011;49390;51.380;0.098;2023-05-10T00:00:48;7.07;;;3.03;;
63259;SDS011;49390;51.380;0.098;2023-05-10T00:03:18;6.05;;;2.92;;
63259;SDS011;49390;51.380;0.098;2023-05-10T00:05:50;6.22;;;2.67;;
63259;SDS011;49390;51.380;0.098;2023-05-10T00:08:18;6.80;;;2.83;;
63259;SDS011;49390;51.380;0.098;2023-05-10T00:10:46;5.55;;;2.85;;
63259;SDS011;49390;51.380;0.098;2023-05-10T00:13:14;8.25;;;3.00;;
63259;SDS011;49390;51.380;0.098;2023-05-10T00:15:42;6.97;;;3.17;;
63259;SDS011;49390;51.380;0.098;2023-05-10T00:18:11;6.53;;;2.83;;
63259;SDS011;49390;51.380;0.098;2023-05-10T00:20:39;6.18;;;3.00;;
63259;SDS011;49390;51.380;0.098;2023-05-10T00:23:07;9.98;;;3.45;;
63259;SDS011;49390;51.380;0.098;2023-05-10T00:25:35;6.47;;;3.05;;
63259;SDS011;49390;51.380;0.098;2023-05-10T00:28:03;6.97;;;3.05;;
63259;SDS011;49390;51.380;0.098;2023-05-10T00:30:31;7.68;;;3.60;;
63259;SDS011;49390;51.380;0.098;2023-05-10T00:33:01;7.60;;;3.03;;
63259;SDS011;49390;51.380;0.098;2023-05-10T00:35:30;6.80;;;3.63;;
63259;SDS011;49390;51.380;0.098;2023-05-10T00:37:58;7.75;;;4.20;;
63259;SDS011;49390;51.380;0.098;2023-05-10T00:40:26;6.88;;;3.40;;
63259;SDS011;49390;51.380;0.098;2023-05-10T00:42:59;8.52;;;3.72;;
63259;SDS011;49390;51.380;0.098;2023-05-10T00:45:29;6.95;;;3.60;;
63259;SDS011;49390;51.380;0.098;2023-05-10T00:48:03;10.55;;;4.40;;
63259;SDS011;49390;51.380;0.098;2023-05-10T00:50:37;8.27;;;4.28;;
63259;SDS011;49390;51.380;0.098;2023-05-10T00:53:11;7.53;;;3.72;;
63259;SDS011;49390;51.380;0.098;2023-05-10T00:55:39;8.88;;;4.47;;
63259;SDS011;49390;51.380;0.098;2023-05-10T00:58:07;10.05;;;4.10;;
63259;SDS011;49390;51.380;0.098;2023-05-10T01:00:36;7.93;;;4.05;;
63259;SDS011;49390;51.380;0.098;2023-05-10T01:03:09;10.05;;;4.35;;
63259;SDS011;49390;51.380;0.098;2023-05-10T01:05:39;8.50;;;4.50;;
63259;SDS011;49390;51.380;0.098;2023-05-10T01:08:09;7.70;;;4.67;;
63259;SDS011;49390;51.380;0.098;2023-05-10T01:10:37;10.07;;;4.45;;
63259;SDS011;49390;51.380;0.098;2023-05-10T01:13:08;7.75;;;3.78;;
63259;SDS011;49390;51.380;0.098;2023-05-10T01:15:37;9.13;;;4.45;;
63259;SDS011;49390;51.380;0.098;2023-05-10T01:18:08;7.97;;;4.20;;
63259;SDS011;49390;51.380;0.098;2023-05-10T01:20:40;8.50;;;5.00;;
63259;SDS011;49390;51.380;0.098;2023-05-10T01:23:23;8.85;;;4.72;;
63259;SDS011;49390;51.380;0.098;2023-05-10T01:37:25;8.05;;;4.28;;
63259;SDS011;49390;51.380;0.098;2023-05-10T01:43:00;10.60;;;4.50;;
63259;SDS011;49390;51.380;0.098;2023-05-10T01:48:07;9.02;;;4.63;;
63259;SDS011;49390;51.380;0.098;2023-05-10T01:50:39;9.35;;;4.50;;
63259;SDS011;49390;51.380;0.098;2023-05-10T01:54:07;11.40;;;4.50;;
63259;SDS011;49390;51.380;0.098;2023-05-10T01:56:37;11.15;;;4.50;;
63259;SDS011;49390;51.380;0.098;2023-05-10T01:59:08;7.28;;;3.80;;
63259;SDS011;49390;51.380;0.098;2023-05-10T02:01:41;9.10;;;4.40;;
63259;SDS011;49390;51.380;0.098;2023-05-10T02:04:13;6.87;;;4.07;;
63259;SDS011;49390;51.380;0.098;2023-05-10T02:06:47;8.57;;;4.38;;
63259;SDS011;49390;51.380;0.098;2023-05-10T02:09:15;11.10;;;4.85;;
63259;SDS011;49390;51.380;0.098;2023-05-10T02:11:47;8.52;;;4.00;;
63259;SDS011;49390;51.380;0.098;2023-05-10T02:14:16;8.75;;;4.10;;
63259;SDS011;49390;51.380;0.098;2023-05-10T02:16:45;9.50;;;4.10;;
63259;SDS011;49390;51.380;0.098;2023-05-10T02:19:15;8.95;;;4.47;;
63259;SDS011;49390;51.380;0.098;2023-05-10T02:21:44;8.57;;;4.35;;
63259;SDS011;49390;51.380;0.098;2023-05-10T02:24:13;8.90;;;4.53;;
63259;SDS011;49390;51.380;0.098;2023-05-10T02:26:43;7.18;;;4.00;;
63259;SDS011;49390;51.380;0.098;2023-05-10T02:29:14;7.40;;;4.10;;
63259;SDS011;49390;51.380;0.098;2023-05-10T02:31:43;9.25;;;4.78;;
63259;SDS011;49390;51.380;0.098;2023-05-10T02:34:12;9.23;;;4.63;;
63259;SDS011;49390;51.380;0.098;2023-05-10T02:36:41;7.85;;;4.43;;
63259;SDS011;49390;51.380;0.098;2023-05-10T02:39:10;13.52;;;5.00;;
63259;SDS011;49390;51.380;0.098;2023-05-10T02:41:41;8.57;;;4.32;;
63259;SDS011;49390;51.380;0.098;2023-05-10T02:44:10;7.63;;;4.40;;
63259;SDS011;49390;51.380;0.098;2023-05-10T02:46:41;8.82;;;4.30;;
63259;SDS011;49390;51.380;0.098;2023-05-10T02:49:14;8.45;;;4.32;;
63259;SDS011;49390;51.380;0.098;2023-05-10T02:51:47;9.07;;;4.30;;
63259;SDS011;49390;51.380;0.098;2023-05-10T02:54:19;8.38;;;4.38;;
63259;SDS011;49390;51.380;0.098;2023-05-10T02:57:00;8.93;;;3.95;;
63259;SDS011;49390;51.380;0.098;2023-05-10T02:59:31;9.48;;;4.40;;
63259;SDS011;49390;51.380;0.098;2023-05-10T03:02:00;9.90;;;4.60;;
63259;SDS011;49390;51.380;0.098;2023-05-10T03:04:29;9.88;;;4.72;;
63259;SDS011;49390;51.380;0.098;2023-05-10T03:06:59;8.17;;;4.87;;
63259;SDS011;49390;51.380;0.098;2023-05-10T03:09:28;10.07;;;4.50;;
63259;SDS011;49390;51.380;0.098;2023-05-10T03:20:48;10.52;;;5.07;;
63259;SDS011;49390;51.380;0.098;2023-05-10T03:25:46;9.77;;;4.57;;
63259;SDS011;49390;51.380;0.098;2023-05-10T03:28:18;9.23;;;4.68;;
63259;SDS011;49390;51.380;0.098;2023-05-10T03:30:47;9.75;;;4.60;;
63259;SDS011;49390;51.380;0.098;2023-05-10T03:33:20;11.38;;;4.85;;
63259;SDS011;49390;51.380;0.098;2023-05-10T03:35:49;12.27;;;4.95;;
63259;SDS011;49390;51.380;0.098;2023-05-10T03:38:17;10.85;;;5.00;;
63259;SDS011;49390;51.380;0.098;2023-05-10T03:40:46;11.35;;;5.05;;
63259;SDS011;49390;51.380;0.098;2023-05-10T03:43:14;10.60;;;5.35;;
63259;SDS011;49390;51.380;0.098;2023-05-10T03:45:42;10.65;;;5.32;;
63259;SDS011;49390;51.380;0.098;2023-05-10T03:48:10;9.85;;;4.80;;
63259;SDS011;49390;51.380;0.098;2023-05-10T03:50:38;10.52;;;5.13;;
63259;SDS011;49390;51.380;0.098;2023-05-10T03:53:06;10.77;;;5.60;;
63259;SDS011;49390;51.380;0.098;2023-05-10T03:55:34;8.63;;;4.85;;
63259;SDS011;49390;51.380;0.098;2023-05-10T03:58:03;13.48;;;5.20;;
63259;SDS011;49390;51.380;0.098;2023-05-10T04:00:33;10.68;;;5.22;;
63259;SDS011;49390;51.380;0.098;2023-05-10T04:03:01;9.80;;;5.20;;
63259;SDS011;49390;51.380;0.098;2023-05-10T04:05:29;10.80;;;5.43;;
63259;SDS011;49390;51.380;0.098;2023-05-10T04:07:57;11.32;;;5.50;;
63259;SDS011;49390;51.380;0.098;2023-05-10T04:10:25;10.23;;;4.97;;
63259;SDS011;49390;51.380;0.098;2023-05-10T04:12:53;11.27;;;5.30;;
63259;SDS011;49390;51.380;0.098;2023-05-10T04:15:21;10.90;;;5.28;;
63259;SDS011;49390;51.380;0.098;2023-05-10T04:17:49;10.90;;;5.60;;
63259;SDS011;49390;51.380;0.098;2023-05-10T04:20:17;11.85;;;5.50;;
63259;SDS011;49390;51.380;0.098;2023-05-10T04:22:48;11.80;;;5.67;;
63259;SDS011;49390;51.380;0.098;2023-05-10T04:25:15;14.80;;;6.13;;
63259;SDS011;49390;51.380;0.098;2023-05-10T04:27:44;15.65;;;5.82;;
63259;SDS011;49390;51.380;0.098;2023-05-10T04:30:12;14.23;;;6.28;;
63259;SDS011;49390;51.380;0.098;2023-05-10T04:32:40;12.48;;;5.90;;
63259;SDS011;49390;51.380;0.098;2023-05-10T04:35:08;13.38;;;6.45;;
63259;SDS011;49390;51.380;0.098;2023-05-10T04:37:38;13.35;;;5.85;;
63259;SDS011;49390;51.380;0.098;2023-05-10T04:40:05;11.27;;;5.88;;
63259;SDS011;49390;51.380;0.098;2023-05-10T04:42:34;13.88;;;6.10;;
63259;SDS011;49390;51.380;0.098;2023-05-10T04:45:02;15.52;;;6.13;;
63259;SDS011;49390;51.380;0.098;2023-05-10T04:47:33;15.30;;;7.07;;
63259;SDS011;49390;51.380;0.098;2023-05-10T04:50:01;12.80;;;6.25;;
63259;SDS011;49390;51.380;0.098;2023-05-10T04:52:30;13.85;;;6.50;;
63259;SDS011;49390;51.380;0.098;2023-05-10T04:54:57;15.27;;;6.95;;
63259;SDS011;49390;51.380;0.098;2023-05-10T04:57:25;15.07;;;6.93;;
63259;SDS011;49390;51.380;0.098;2023-05-10T04:59:55;13.75;;;7.45;;
63259;SDS011;49390;51.380;0.098;2023-05-10T05:02:23;16.13;;;7.20;;
63259;SDS011;49390;51.380;0.098;2023-05-10T05:04:51;16.02;;;7.57;;
63259;SDS011;49390;51.380;0.098;2023-05-10T05:07:20;18.08;;;7.43;;
63259;SDS011;49390;51.380;0.098;2023-05-10T05:09:47;16.15;;;7.10;;
63259;SDS011;49390;51.380;0.098;2023-05-10T05:12:15;15.07;;;7.40;;
63259;SDS011;49390;51.380;0.098;2023-05-10T05:14:43;14.07;;;7.70;;
63259;SDS011;49390;51.380;0.098;2023-05-10T05:17:11;15.57;;;7.95;;
63259;SDS011;49390;51.380;0.098;2023-05-10T05:19:39;16.55;;;8.23;;
63259;SDS011;49390;51.380;0.098;2023-05-10T05:22:07;18.02;;;7.28;;
63259;SDS011;49390;51.380;0.098;2023-05-10T05:24:37;14.45;;;7.70;;
63259;SDS011;49390;51.380;0.098;2023-05-10T05:27:05;14.13;;;7.70;;
63259;SDS011;49390;51.380;0.098;2023-05-10T05:29:34;17.55;;;7.57;;
63259;SDS011;49390;51.380;0.098;2023-05-10T05:32:02;13.88;;;7.85;;
63259;SDS011;49390;51.380;0.098;2023-05-10T05:34:30;19.23;;;8.00;;
63259;SDS011;49390;51.380;0.098;2023-05-10T05:36:58;13.55;;;6.60;;
63259;SDS011;49390;51.380;0.098;2023-05-10T05:39:26;15.88;;;7.80;;
63259;SDS011;49390;51.380;0.098;2023-05-10T05:41:54;15.20;;;7.15;;
63259;SDS011;49390;51.380;0.098;2023-05-10T05:44:22;14.68;;;7.30;;
63259;SDS011;49390;51.380;0.098;2023-05-10T05:46:50;15.27;;;7.13;;
63259;SDS011;49390;51.380;0.098;2023-05-10T05:49:18;16.17;;;7.55;;
63259;SDS011;49390;51.380;0.098;2023-05-10T05:51:45;18.40;;;7.53;;
63259;SDS011;49390;51.380;0.098;2023-05-10T05:54:14;16.85;;;7.38;;
63259;SDS011;49390;51.380;0.098;2023-05-10T05:56:42;15.55;;;7.45;;
63259;SDS011;49390;51.380;0.098;2023-05-10T05:59:11;15.75;;;7.93;;
63259;SDS011;49390;51.380;0.098;2023-05-10T06:01:39;13.52;;;6.97;;
63259;SDS011;49390;51.380;0.098;2023-05-10T06:04:07;13.82;;;6.50;;
63259;SDS011;49390;51.380;0.098;2023-05-10T06:06:35;15.07;;;7.47;;
63259;SDS011;49390;51.380;0.098;2023-05-10T06:09:03;13.15;;;7.13;;
63259;SDS011;49390;51.380;0.098;2023-05-10T06:11:31;18.50;;;8.35;;
63259;SDS011;49390;51.380;0.098;2023-05-10T06:13:59;16.55;;;7.07;;
63259;SDS011;49390;51.380;0.098;2023-05-10T06:16:27;15.43;;;7.20;;
63259;SDS011;49390;51.380;0.098;2023-05-10T06:18:55;12.02;;;6.45;;
63259;SDS011;49390;51.380;0.098;2023-05-10T06:21:24;11.07;;;5.88;;
63259;SDS011;49390;51.380;0.098;2023-05-10T06:23:52;14.40;;;6.78;;
63259;SDS011;49390;51.380;0.098;2023-05-10T06:26:20;13.63;;;6.78;;
63259;SDS011;49390;51.380;0.098;2023-05-10T06:28:48;12.73;;;7.03;;
63259;SDS011;49390;51.380;0.098;2023-05-10T06:31:16;14.30;;;7.03;;
63259;SDS011;49390;51.380;0.098;2023-05-10T06:33:44;15.90;;;6.45;;
63259;SDS011;49390;51.380;0.098;2023-05-10T06:36:13;17.52;;;6.88;;
63259;SDS011;49390;51.380;0.098;2023-05-10T06:38:40;17.13;;;7.93;;
63259;SDS011;49390;51.380;0.098;2023-05-10T06:41:08;17.08;;;7.70;;
63259;SDS011;49390;51.380;0.098;2023-05-10T06:43:36;15.48;;;6.53;;
63259;SDS011;49390;51.380;0.098;2023-05-10T06:46:07;16.23;;;7.00;;
63259;SDS011;49390;51.380;0.098;2023-05-10T06:48:35;16.58;;;6.93;;
63259;SDS011;49390;51.380;0.098;2023-05-10T06:51:03;15.75;;;7.30;;
63259;SDS011;49390;51.380;0.098;2023-05-10T06:53:31;16.63;;;7.38;;
63259;SDS011;49390;51.380;0.098;2023-05-10T06:55:59;13.60;;;7.45;;
63259;SDS011;49390;51.380;0.098;2023-05-10T06:58:27;13.70;;;7.82;;
63259;SDS011;49390;51.380;0.098;2023-05-10T07:01:01;12.30;;;6.85;;
63259;SDS011;49390;51.380;0.098;2023-05-10T07:03:32;12.40;;;6.05;;
63259;SDS011;49390;51.380;0.098;2023-05-10T07:06:01;11.55;;;6.10;;
63259;SDS011;49390;51.380;0.098;2023-05-10T07:08:33;11.63;;;5.72;;
63259;SDS011;49390;51.380;0.098;2023-05-10T07:11:02;12.23;;;5.65;;
63259;SDS011;49390;51.380;0.098;2023-05-10T07:13:31;13.45;;;5.93;;
63259;SDS011;49390;51.380;0.098;2023-05-10T07:15:59;10.30;;;5.25;;
63259;SDS011;49390;51.380;0.098;2023-05-10T07:18:29;11.60;;;5.15;;
63259;SDS011;49390;51.380;0.098;2023-05-10T07:20:57;11.63;;;5.50;;
63259;SDS011;49390;51.380;0.098;2023-05-10T07:23:25;9.32;;;5.05;;
63259;SDS011;49390;51.380;0.098;2023-05-10T07:25:53;10.25;;;5.22;;
63259;SDS011;49390;51.380;0.098;2023-05-10T07:28:21;10.77;;;5.05;;
63259;SDS011;49390;51.380;0.098;2023-05-10T07:30:49;10.88;;;4.35;;
63259;SDS011;49390;51.380;0.098;2023-05-10T07:33:17;10.98;;;4.35;;
63259;SDS011;49390;51.380;0.098;2023-05-10T07:35:45;11.43;;;4.13;;
63259;SDS011;49390;51.380;0.098;2023-05-10T07:38:13;8.95;;;3.83;;
63259;SDS011;49390;51.380;0.098;2023-05-10T07:40:41;9.80;;;4.40;;
63259;SDS011;49390;51.380;0.098;2023-05-10T07:43:10;10.00;;;4.22;;
63259;SDS011;49390;51.380;0.098;2023-05-10T07:45:38;8.93;;;4.00;;
63259;SDS011;49390;51.380;0.098;2023-05-10T07:48:05;11.00;;;4.38;;
63259;SDS011;49390;51.380;0.098;2023-05-10T07:50:34;7.55;;;4.00;;
63259;SDS011;49390;51.380;0.098;2023-05-10T07:53:02;9.00;;;4.20;;
63259;SDS011;49390;51.380;0.098;2023-05-10T07:55:30;8.15;;;3.90;;
63259;SDS011;49390;51.380;0.098;2023-05-10T07:57:57;9.35;;;3.63;;
63259;SDS011;49390;51.380;0.098;2023-05-10T08:00:28;9.23;;;3.88;;
63259;SDS011;49390;51.380;0.098;2023-05-10T08:02:56;11.50;;;4.38;;
63259;SDS011;49390;51.380;0.098;2023-05-10T08:05:26;11.10;;;3.70;;
63259;SDS011;49390;51.380;0.098;2023-05-10T08:07:57;11.38;;;4.22;;
63259;SDS011;49390;51.380;0.098;2023-05-10T08:10:26;7.57;;;3.78;;
63259;SDS011;49390;51.380;0.098;2023-05-10T08:12:54;10.27;;;4.05;;
63259;SDS011;49390;51.380;0.098;2023-05-10T08:15:22;12.10;;;4.10;;
63259;SDS011;49390;51.380;0.098;2023-05-10T08:17:52;8.95;;;3.88;;
63259;SDS011;49390;51.380;0.098;2023-05-10T08:20:21;14.05;;;4.45;;
63259;SDS011;49390;51.380;0.098;2023-05-10T08:22:51;6.80;;;3.58;;
63259;SDS011;49390;51.380;0.098;2023-05-10T08:25:19;11.82;;;3.90;;
63259;SDS011;49390;51.380;0.098;2023-05-10T08:27:47;8.63;;;3.60;;
63259;SDS011;49390;51.380;0.098;2023-05-10T08:30:16;7.82;;;4.05;;
63259;SDS011;49390;51.380;0.098;2023-05-10T08:32:44;9.55;;;3.85;;
63259;SDS011;49390;51.380;0.098;2023-05-10T08:35:13;6.53;;;3.10;;
63259;SDS011;49390;51.380;0.098;2023-05-10T08:37:41;7.57;;;3.33;;
63259;SDS011;49390;51.380;0.098;2023-05-10T08:40:09;7.70;;;3.45;;
63259;SDS011;49390;51.380;0.098;2023-05-10T08:42:40;9.13;;;3.90;;
63259;SDS011;49390;51.380;0.098;2023-05-10T08:45:10;7.53;;;4.07;;
63259;SDS011;49390;51.380;0.098;2023-05-10T08:47:39;8.68;;;3.90;;
63259;SDS011;49390;51.380;0.098;2023-05-10T08:50:10;9.43;;;4.07;;
63259;SDS011;49390;51.380;0.098;2023-05-10T08:52:41;8.77;;;4.28;;
63259;SDS011;49390;51.380;0.098;2023-05-10T08:55:10;9.73;;;3.85;;
63259;SDS011;49390;51.380;0.098;2023-05-10T08:57:38;9.77;;;4.22;;
63259;SDS011;49390;51.380;0.098;2023-05-10T09:00:06;9.23;;;4.07;;
63259;SDS011;49390;51.380;0.098;2023-05-10T09:02:36;9.40;;;4.40;;
63259;SDS011;49390;51.380;0.098;2023-05-10T09:05:05;10.02;;;4.38;;
63259;SDS011;49390;51.380;0.098;2023-05-10T09:07:33;8.50;;;3.85;;
63259;SDS011;49390;51.380;0.098;2023-05-10T09:10:03;8.90;;;4.18;;
63259;SDS011;49390;51.380;0.098;2023-05-10T09:12:31;7.55;;;3.88;;
63259;SDS011;49390;51.380;0.098;2023-05-10T09:15:00;9.18;;;3.72;;
63259;SDS011;49390;51.380;0.098;2023-05-10T09:17:28;8.30;;;4.13;;
63259;SDS011;49390;51.380;0.098;2023-05-10T09:20:01;12.32;;;4.13;;
63259;SDS011;49390;51.380;0.098;2023-05-10T09:22:31;7.88;;;4.00;;
63259;SDS011;49390;51.380;0.098;2023-05-10T09:25:06;8.95;;;4.10;;
63259;SDS011;49390;51.380;0.098;2023-05-10T09:27:43;10.85;;;3.90;;
63259;SDS011;49390;51.380;0.098;2023-05-10T09:30:16;10.15;;;4.38;;
63259;SDS011;49390;51.380;0.098;2023-05-10T09:32:50;8.05;;;4.28;;
63259;SDS011;49390;51.380;0.098;2023-05-10T09:35:20;7.47;;;4.40;;
63259;SDS011;49390;51.380;0.098;2023-05-10T09:37:56;7.53;;;4.10;;
63259;SDS011;49390;51.380;0.098;2023-05-10T09:43:02;7.72;;;3.85;;
63259;SDS011;49390;51.380;0.098;2023-05-10T09:45:34;8.95;;;4.88;;
63259;SDS011;49390;51.380;0.098;2023-05-10T09:48:05;7.00;;;4.00;;
63259;SDS011;49390;51.380;0.098;2023-05-10T09:50:34;8.13;;;4.70;;
63259;SDS011;49390;51.380;0.098;2023-05-10T09:53:02;7.72;;;4.15;;
63259;SDS011;49390;51.380;0.098;2023-05-10T09:55:38;8.27;;;3.83;;
63259;SDS011;49390;51.380;0.098;2023-05-10T09:58:13;9.18;;;4.30;;
63259;SDS011;49390;51.380;0.098;2023-05-10T10:00:43;9.60;;;4.00;;
63259;SDS011;49390;51.380;0.098;2023-05-10T10:03:12;8.73;;;4.15;;
63259;SDS011;49390;51.380;0.098;2023-05-10T10:08:11;7.63;;;3.30;;
63259;SDS011;49390;51.380;0.098;2023-05-10T10:10:43;9.70;;;3.83;;
63259;SDS011;49390;51.380;0.098;2023-05-10T10:13:13;6.85;;;3.40;;
63259;SDS011;49390;51.380;0.098;2023-05-10T10:15:43;7.55;;;3.40;;
63259;SDS011;49390;51.380;0.098;2023-05-10T10:18:15;7.82;;;3.90;;
63259;SDS011;49390;51.380;0.098;2023-05-10T10:20:43;7.93;;;3.92;;
63259;SDS011;49390;51.380;0.098;2023-05-10T10:23:11;8.32;;;4.43;;
63259;SDS011;49390;51.380;0.098;2023-05-10T10:25:44;8.75;;;3.75;;
63259;SDS011;49390;51.380;0.098;2023-05-10T10:30:59;7.32;;;3.95;;
63259;SDS011;49390;51.380;0.098;2023-05-10T10:36:19;7.82;;;3.88;;
63259;SDS011;49390;51.380;0.098;2023-05-10T10:38:57;8.27;;;4.00;;
63259;SDS011;49390;51.380;0.098;2023-05-10T10:41:37;6.80;;;3.60;;
63259;SDS011;49390;51.380;0.098;2023-05-10T10:54:57;9.10;;;4.22;;
63259;SDS011;49390;51.380;0.098;2023-05-10T10:57:42;8.07;;;3.70;;
63259;SDS011;49390;51.380;0.098;2023-05-10T11:00:36;7.78;;;3.80;;
63259;SDS011;49390;51.380;0.098;2023-05-10T11:03:09;8.05;;;3.88;;
63259;SDS011;49390;51.380;0.098;2023-05-10T11:05:48;7.10;;;3.88;;
63259;SDS011;49390;51.380;0.098;2023-05-10T11:10:50;7.45;;;4.07;;
63259;SDS011;49390;51.380;0.098;2023-05-10T11:15:56;7.18;;;3.97;;
63259;SDS011;49390;51.380;0.098;2023-05-10T11:18:26;8.45;;;3.75;;
63259;SDS011;49390;51.380;0.098;2023-05-10T11:20:57;8.35;;;3.58;;
63259;SDS011;49390;51.380;0.098;2023-05-10T11:26:07;7.57;;;3.88;;
63259;SDS011;49390;51.380;0.098;2023-05-10T11:28:42;7.72;;;3.38;;
63259;SDS011;49390;51.380;0.098;2023-05-10T11:31:14;7.35;;;3.33;;
63259;SDS011;49390;51.380;0.098;2023-05-10T11:33:47;6.70;;;3.00;;
63259;SDS011;49390;51.380;0.098;2023-05-10T11:36:16;7.07;;;3.28;;
63259;SDS011;49390;51.380;0.098;2023-05-10T11:38:46;6.97;;;3.60;;
63259;SDS011;49390;51.380;0.098;2023-05-10T11:41:15;6.45;;;3.38;;
63259;SDS011;49390;51.380;0.098;2023-05-10T11:43:49;6.43;;;2.90;;
63259;SDS011;49390;51.380;0.098;2023-05-10T11:46:18;7.55;;;2.90;;
63259;SDS011;49390;51.380;0.098;2023-05-10T11:48:51;5.88;;;2.75;;
63259;SDS011;49390;51.380;0.098;2023-05-10T11:51:24;7.88;;;3.00;;
63259;SDS011;49390;51.380;0.098;2023-05-10T11:53:53;5.50;;;2.53;;
63259;SDS011;49390;51.380;0.098;2023-05-10T11:56:22;5.82;;;2.67;;
63259;SDS011;49390;51.380;0.098;2023-05-10T11:58:57;5.68;;;2.90;;
63259;SDS011;49390;51.380;0.098;2023-05-10T12:01:26;5.63;;;2.90;;
63259;SDS011;49390;51.380;0.098;2023-05-10T12:03:55;5.57;;;2.45;;
63259;SDS011;49390;51.380;0.098;2023-05-10T12:06:28;4.75;;;2.55;;
63259;SDS011;49390;51.380;0.098;2023-05-10T12:09:02;5.05;;;2.45;;
63259;SDS011;49390;51.380;0.098;2023-05-10T12:11:38;5.55;;;2.40;;
63259;SDS011;49390;51.380;0.098;2023-05-10T12:14:11;5.57;;;2.50;;
63259;SDS011;49390;51.380;0.098;2023-05-10T12:16:39;6.05;;;2.65;;
63259;SDS011;49390;51.380;0.098;2023-05-10T12:19:07;5.57;;;2.45;;
63259;SDS011;49390;51.380;0.098;2023-05-10T12:21:35;5.45;;;2.50;;
63259;SDS011;49390;51.380;0.098;2023-05-10T12:24:03;7.40;;;2.90;;
63259;SDS011;49390;51.380;0.098;2023-05-10T12:26:34;6.37;;;2.40;;
63259;SDS011;49390;51.380;0.098;2023-05-10T12:29:37;5.82;;;2.60;;
63259;SDS011;49390;51.380;0.098;2023-05-10T12:31:58;7.13;;;2.90;;
63259;SDS011;49390;51.380;0.098;2023-05-10T12:34:29;9.45;;;3.05;;
63259;SDS011;49390;51.380;0.098;2023-05-10T12:36:59;7.40;;;3.10;;
63259;SDS011;49390;51.380;0.098;2023-05-10T12:39:40;6.95;;;2.60;;
63259;SDS011;49390;51.380;0.098;2023-05-10T12:42:09;5.63;;;2.40;;
63259;SDS011;49390;51.380;0.098;2023-05-10T12:44:38;6.30;;;2.58;;
63259;SDS011;49390;51.380;0.098;2023-05-10T12:47:07;5.47;;;2.58;;
63259;SDS011;49390;51.380;0.098;2023-05-10T12:49:35;4.68;;;2.50;;
63259;SDS011;49390;51.380;0.098;2023-05-10T12:52:03;7.38;;;2.67;;
63259;SDS011;49390;51.380;0.098;2023-05-10T12:54:31;4.85;;;2.33;;
63259;SDS011;49390;51.380;0.098;2023-05-10T12:56:59;5.90;;;2.25;;
63259;SDS011;49390;51.380;0.098;2023-05-10T12:59:27;4.75;;;2.30;;
63259;SDS011;49390;51.380;0.098;2023-05-10T13:01:56;5.45;;;2.33;;
63259;SDS011;49390;51.380;0.098;2023-05-10T13:04:25;6.45;;;2.40;;
63259;SDS011;49390;51.380;0.098;2023-05-10T13:06:53;6.28;;;2.75;;
63259;SDS011;49390;51.380;0.098;2023-05-10T13:09:26;5.45;;;2.53;;
63259;SDS011;49390;51.380;0.098;2023-05-10T13:11:56;7.68;;;2.70;;
63259;SDS011;49390;51.380;0.098;2023-05-10T13:14:24;5.60;;;2.90;;
63259;SDS011;49390;51.380;0.098;2023-05-10T13:16:53;7.28;;;3.03;;
63259;SDS011;49390;51.380;0.098;2023-05-10T13:19:25;6.60;;;3.30;;
63259;SDS011;49390;51.380;0.098;2023-05-10T13:21:53;6.85;;;3.08;;
63259;SDS011;49390;51.380;0.098;2023-05-10T13:24:21;10.32;;;3.08;;
63259;SDS011;49390;51.380;0.098;2023-05-10T13:26:49;9.02;;;3.33;;
63259;SDS011;49390;51.380;0.098;2023-05-10T13:29:17;5.97;;;2.75;;
63259;SDS011;49390;51.380;0.098;2023-05-10T13:31:46;5.88;;;3.05;;
63259;SDS011;49390;51.380;0.098;2023-05-10T13:34:14;6.80;;;2.72;;
63259;SDS011;49390;51.380;0.098;2023-05-10T13:36:42;6.05;;;2.95;;
63259;SDS011;49390;51.380;0.098;2023-05-10T13:39:10;4.45;;;2.38;;
63259;SDS011;49390;51.380;0.098;2023-05-10T13:41:40;4.47;;;2.17;;
63259;SDS011;49390;51.380;0.098;2023-05-10T13:44:09;5.07;;;2.38;;
63259;SDS011;49390;51.380;0.098;2023-05-10T13:46:40;4.03;;;2.28;;
63259;SDS011;49390;51.380;0.098;2023-05-10T13:49:10;6.22;;;2.50;;
63259;SDS011;49390;51.380;0.098;2023-05-10T13:51:38;7.35;;;2.72;;
63259;SDS011;49390;51.380;0.098;2023-05-10T13:54:06;6.43;;;2.72;;
63259;SDS011;49390;51.380;0.098;2023-05-10T13:56:34;7.25;;;3.20;;
63259;SDS011;49390;51.380;0.098;2023-05-10T13:59:02;5.53;;;2.72;;
63259;SDS011;49390;51.380;0.098;2023-05-10T14:01:30;10.15;;;2.88;;
63259;SDS011;49390;51.380;0.098;2023-05-10T14:03:59;7.63;;;2.60;;
63259;SDS011;49390;51.380;0.098;2023-05-10T14:06:27;5.15;;;2.80;;
63259;SDS011;49390;51.380;0.098;2023-05-10T14:08:55;6.22;;;2.60;;
63259;SDS011;49390;51.380;0.098;2023-05-10T14:11:25;5.57;;;2.42;;
63259;SDS011;49390;51.380;0.098;2023-05-10T14:13:53;8.02;;;3.08;;
63259;SDS011;49390;51.380;0.098;2023-05-10T14:16:21;7.15;;;2.90;;
63259;SDS011;49390;51.380;0.098;2023-05-10T14:18:49;7.32;;;3.03;;
63259;SDS011;49390;51.380;0.098;2023-05-10T14:21:17;8.82;;;2.80;;
63259;SDS011;49390;51.380;0.098;2023-05-10T14:23:45;6.47;;;2.88;;
63259;SDS011;49390;51.380;0.098;2023-05-10T14:26:13;9.40;;;3.03;;
63259;SDS011;49390;51.380;0.098;2023-05-10T14:28:41;6.88;;;2.85;;
63259;SDS011;49390;51.380;0.098;2023-05-10T14:31:09;5.72;;;2.78;;
63259;SDS011;49390;51.380;0.098;2023-05-10T14:33:37;8.02;;;2.88;;
63259;SDS011;49390;51.380;0.098;2023-05-10T14:36:06;6.38;;;2.97;;
63259;SDS011;49390;51.380;0.098;2023-05-10T14:38:34;8.55;;;3.00;;
63259;SDS011;49390;51.380;0.098;2023-05-10T14:41:02;7.68;;;2.90;;
63259;SDS011;49390;51.380;0.098;2023-05-10T14:43:30;7.10;;;3.00;;
63259;SDS011;49390;51.380;0.098;2023-05-10T14:45:58;5.95;;;2.45;;
63259;SDS011;49390;51.380;0.098;2023-05-10T14:48:26;8.35;;;3.05;;
63259;SDS011;49390;51.380;0.098;2023-05-10T14:50:57;6.30;;;2.63;;
63259;SDS011;49390;51.380;0.098;2023-05-10T14:53:26;5.10;;;2.70;;
63259;SDS011;49390;51.380;0.098;2023-05-10T14:55:54;6.10;;;2.50;;
63259;SDS011;49390;51.380;0.098;2023-05-10T14:58:23;4.22;;;2.38;;
63259;SDS011;49390;51.380;0.098;2023-05-10T15:00:51;4.65;;;1.90;;
63259;SDS011;49390;51.380;0.098;2023-05-10T15:03:19;4.30;;;2.10;;
63259;SDS011;49390;51.380;0.098;2023-05-10T15:05:47;3.95;;;2.13;;
63259;SDS011;49390;51.380;0.098;2023-05-10T15:08:15;3.35;;;1.83;;
63259;SDS011;49390;51.380;0.098;2023-05-10T15:10:43;3.53;;;1.80;;
63259;SDS011;49390;51.380;0.098;2023-05-10T15:13:11;4.53;;;1.83;;
63259;SDS011;49390;51.380;0.098;2023-05-10T15:15:39;3.35;;;1.70;;
63259;SDS011;49390;51.380;0.098;2023-05-10T15:18:08;2.95;;;1.63;;
63259;SDS011;49390;51.380;0.098;2023-05-10T15:20:37;2.85;;;1.50;;
63259;SDS011;49390;51.380;0.098;2023-05-10T15:23:05;4.28;;;1.98;;
63259;SDS011;49390;51.380;0.098;2023-05-10T15:25:33;7.45;;;2.15;;
63259;SDS011;49390;51.380;0.098;2023-05-10T15:28:06;5.78;;;2.30;;
63259;SDS011;49390;51.380;0.098;2023-05-10T15:30:34;4.28;;;2.10;;
63259;SDS011;49390;51.380;0.098;2023-05-10T15:33:05;3.43;;;1.97;;
63259;SDS011;49390;51.380;0.098;2023-05-10T15:35:33;5.53;;;2.35;;
63259;SDS011;49390;51.380;0.098;2023-05-10T15:38:03;4.38;;;2.08;;
63259;SDS011;49390;51.380;0.098;2023-05-10T15:40:31;4.65;;;2.00;;
63259;SDS011;49390;51.380;0.098;2023-05-10T15:42:59;4.00;;;2.20;;
63259;SDS011;49390;51.380;0.098;2023-05-10T15:45:26;6.82;;;2.17;;
63259;SDS011;49390;51.380;0.098;2023-05-10T15:47:54;5.63;;;2.30;;
63259;SDS011;49390;51.380;0.098;2023-05-10T15:50:22;4.68;;;2.05;;
63259;SDS011;49390;51.380;0.098;2023-05-10T15:52:50;3.33;;;1.88;;
63259;SDS011;49390;51.380;0.098;2023-05-10T15:55:18;5.63;;;1.90;;